Adams Basin, New York
Current Conditions -  °F | °C
As of 9:54 PM on Friday 31 Oct 2014 (Local Time) from KROC Reporting Station
Light Rain Light Rain  
Wind Chill: 41°   Ceiling: 3500
Heat Index: 44°   Visibility: 10mi
Dew Point: 40°   Wind: 6mph
Humidity: 85%   Direction: 90°E
Pressure: 29.98"   Gusts: NA
Location:  43.2°N, 77.85°W
Report Text: KROC 010154Z 09005KT 10SM -RA BKN035 BKN045 OVC055 07/04 A2998 RMK AO2 SLP158 P0001 T00670044
Loading
Personal Weather Stations






























Interactive Weather Map
Tropical Storm Tracking
New forecast layout! Learn more

10-Day Weather Forecast

Advertisements
Track Severe Weather on mobile